-> Other stations

1455

Speed(max): 0(0)knots
Direction:268° ( W)
Temperature: 20.7°C
Arrived: 2026-09-03 00:13:18 CEST

Past data:
hh:mmknots
Dir (°)
°C
00:11 0 0 W(269) 21.0
00:09 0 0 W(269) 20.7
00:07 0 0 W(268) 20.6
00:05 0 0 W(269) 20.6
00:03 0 0 W(269) 20.8
00:01 0 0 W(268) 21.0
23:59 0 0 W(268) 20.7
23:57 0 0 W(268) 20.6
23:55 0 0 W(268) 20.6
23:53 0 0 W(268) 20.5
23:51 0 0 W(269) 20.2
23:49 0 0 W(268) 20.2
23:47 0 0 W(269) 20.3
23:45 0 0 W(269) 20.5
15 min. averages:
hh:mmknots
Dir (°)
°C
00:00 0 0 W(268) 20.5
23:45 0 0 W(268) 20.6
23:30 0.5 2.7 W(268) 21.4
23:15 0 2.7 W(268) 21.4
23:00 0.5 2.2 W(268) 21.5
22:45 0.5 2.2 W(269) 21.8
22:30 1.6 2.7 W(268) 22.1
22:15 1.1 2.7 W(268) 22.1
22:00 1.1 4.3 W(267) 22.3
21:45 0 0 W(266) 21.6
21:30 0 1.6 W(266) 21.9
21:15 0.5 2.7 W(265) 22.4
21:00 0.5 2.2 W(266) 22.3
20:45 1.1 3.8 W(268) 22.8
20:30 0 0 W(273) 23.4
Stations at HR:
1455
-> Other regions

Desktop view
Data provided by Holfuy.
© Holfuy Weather 2026